sensor_id;sensor_type;location;lat;lon;timestamp;pressure;altitude;pressure_sealevel;temperature;humidity
7058;BME280;3570;43.080;25.628;2023-07-20T00:02:19;-20087.03;;;21.83;100.00
7058;BME280;3570;43.080;25.628;2023-07-20T00:05:03;-20090.50;;;21.95;100.00
7058;BME280;3570;43.080;25.628;2023-07-20T00:07:48;-20086.44;;;21.81;100.00
7058;BME280;3570;43.080;25.628;2023-07-20T00:10:35;-20091.94;;;22.00;100.00
7058;BME280;3570;43.080;25.628;2023-07-20T00:13:19;-20091.09;;;21.97;100.00
7058;BME280;3570;43.080;25.628;2023-07-20T00:16:05;-20080.38;;;21.60;100.00
7058;BME280;3570;43.080;25.628;2023-07-20T00:18:49;-20084.41;;;21.74;100.00
7058;BME280;3570;43.080;25.628;2023-07-20T00:21:33;-20079.78;;;21.58;100.00
7058;BME280;3570;43.080;25.628;2023-07-20T00:24:17;-20076.31;;;21.45;100.00
7058;BME280;3570;43.080;25.628;2023-07-20T00:27:01;-20074.00;;;21.37;100.00
7058;BME280;3570;43.080;25.628;2023-07-20T00:29:46;-20073.13;;;21.34;100.00
7058;BME280;3570;43.080;25.628;2023-07-20T00:32:30;-20074.88;;;21.40;100.00
7058;BME280;3570;43.080;25.628;2023-07-20T00:35:14;-20076.88;;;21.47;100.00
7058;BME280;3570;43.080;25.628;2023-07-20T00:37:58;-20071.38;;;21.28;100.00
7058;BME280;3570;43.080;25.628;2023-07-20T00:40:42;-20074.00;;;21.37;100.00
7058;BME280;3570;43.080;25.628;2023-07-20T00:43:26;-20074.56;;;21.39;100.00
7058;BME280;3570;43.080;25.628;2023-07-20T00:46:10;-20079.94;;;21.58;100.00
7058;BME280;3570;43.080;25.628;2023-07-20T00:48:55;-20084.41;;;21.74;100.00
7058;BME280;3570;43.080;25.628;2023-07-20T00:51:40;-20077.75;;;21.50;100.00
7058;BME280;3570;43.080;25.628;2023-07-20T00:54:25;-20084.69;;;21.75;100.00
7058;BME280;3570;43.080;25.628;2023-07-20T00:57:09;-20092.25;;;22.01;100.00
7058;BME280;3570;43.080;25.628;2023-07-20T00:59:53;-20099.31;;;22.25;100.00
7058;BME280;3570;43.080;25.628;2023-07-20T01:02:37;-20113.66;;;22.75;100.00
7058;BME280;3570;43.080;25.628;2023-07-20T01:05:26;-20119.72;;;22.96;100.00
7058;BME280;3570;43.080;25.628;2023-07-20T01:08:21;-20118.56;;;22.92;100.00
7058;BME280;3570;43.080;25.628;2023-07-20T01:11:24;-20119.72;;;22.96;100.00
7058;BME280;3570;43.080;25.628;2023-07-20T01:14:13;-20115.09;;;22.80;100.00
7058;BME280;3570;43.080;25.628;2023-07-20T01:16:58;-20110.19;;;22.63;100.00
7058;BME280;3570;43.080;25.628;2023-07-20T01:19:42;-20085.00;;;21.76;100.00
7058;BME280;3570;43.080;25.628;2023-07-20T01:29:10;-20087.91;;;21.86;100.00
7058;BME280;3570;43.080;25.628;2023-07-20T01:31:57;-20070.22;;;21.24;100.00
7058;BME280;3570;43.080;25.628;2023-07-20T01:34:41;-20057.19;;;20.79;100.00
7058;BME280;3570;43.080;25.628;2023-07-20T01:37:27;-20072.56;;;21.32;100.00
7058;BME280;3570;43.080;25.628;2023-07-20T01:40:14;-20080.94;;;21.62;100.00
7058;BME280;3570;43.080;25.628;2023-07-20T01:42:58;-20089.34;;;21.91;100.00
7058;BME280;3570;43.080;25.628;2023-07-20T01:45:44;-20096.28;;;22.15;100.00
7058;BME280;3570;43.080;25.628;2023-07-20T01:48:28;-20095.13;;;22.11;100.00
7058;BME280;3570;43.080;25.628;2023-07-20T01:51:12;-20083.97;;;21.72;100.00
7058;BME280;3570;43.080;25.628;2023-07-20T01:53:56;-20076.31;;;21.45;100.00
7058;BME280;3570;43.080;25.628;2023-07-20T02:00:21;-20065.16;;;21.07;100.00
7058;BME280;3570;43.080;25.628;2023-07-20T02:03:07;-20068.34;;;21.18;100.00
7058;BME280;3570;43.080;25.628;2023-07-20T02:05:52;-20072.56;;;21.32;100.00
7058;BME280;3570;43.080;25.628;2023-07-20T02:08:36;-20069.94;;;21.23;100.00
7058;BME280;3570;43.080;25.628;2023-07-20T02:11:20;-20079.50;;;21.57;100.00
7058;BME280;3570;43.080;25.628;2023-07-20T02:14:04;-20097.59;;;22.19;100.00
7058;BME280;3570;43.080;25.628;2023-07-20T02:16:48;-20096.59;;;22.16;100.00
7058;BME280;3570;43.080;25.628;2023-07-20T02:19:36;-20113.06;;;22.73;100.00
7058;BME280;3570;43.080;25.628;2023-07-20T02:22:21;-20115.38;;;22.81;100.00
7058;BME280;3570;43.080;25.628;2023-07-20T02:25:06;-20110.75;;;22.65;100.00
7058;BME280;3570;43.080;25.628;2023-07-20T02:27:50;-20112.94;;;22.73;100.00
7058;BME280;3570;43.080;25.628;2023-07-20T02:30:37;-20116.53;;;22.85;100.00
7058;BME280;3570;43.080;25.628;2023-07-20T02:33:22;-20117.97;;;22.90;100.00
7058;BME280;3570;43.080;25.628;2023-07-20T02:36:06;-20126.53;;;23.20;100.00
7058;BME280;3570;43.080;25.628;2023-07-20T02:38:50;-20132.16;;;23.40;100.00
7058;BME280;3570;43.080;25.628;2023-07-20T02:41:34;-20133.31;;;23.44;100.00
7058;BME280;3570;43.080;25.628;2023-07-20T02:44:18;-20133.59;;;23.45;100.00
7058;BME280;3570;43.080;25.628;2023-07-20T02:47:02;-20131.88;;;23.39;100.00
7058;BME280;3570;43.080;25.628;2023-07-20T02:49:46;-20135.03;;;23.50;100.00
7058;BME280;3570;43.080;25.628;2023-07-20T02:52:42;-20134.47;;;23.48;100.00
7058;BME280;3570;43.080;25.628;2023-07-20T02:55:26;-20133.16;;;23.43;100.00
7058;BME280;3570;43.080;25.628;2023-07-20T02:58:10;-20116.41;;;22.85;100.00
7058;BME280;3570;43.080;25.628;2023-07-20T03:00:54;-20111.47;;;22.68;100.00
7058;BME280;3570;43.080;25.628;2023-07-20T03:03:38;-20116.69;;;22.86;100.00
7058;BME280;3570;43.080;25.628;2023-07-20T03:06:22;-20116.97;;;22.87;100.00
7058;BME280;3570;43.080;25.628;2023-07-20T03:09:06;-20092.66;;;22.02;100.00
7058;BME280;3570;43.080;25.628;2023-07-20T03:11:50;-20088.47;;;21.88;100.00
7058;BME280;3570;43.080;25.628;2023-07-20T03:14:34;-20078.63;;;21.53;100.00
7058;BME280;3570;43.080;25.628;2023-07-20T03:17:18;-20083.56;;;21.71;100.00
7058;BME280;3570;43.080;25.628;2023-07-20T03:20:05;-20084.13;;;21.73;100.00
7058;BME280;3570;43.080;25.628;2023-07-20T03:22:52;-20087.31;;;21.84;100.00
7058;BME280;3570;43.080;25.628;2023-07-20T03:25:36;-20080.06;;;21.59;100.00
7058;BME280;3570;43.080;25.628;2023-07-20T03:28:21;-20073.41;;;21.35;100.00
7058;BME280;3570;43.080;25.628;2023-07-20T03:31:05;-20082.53;;;21.67;100.00
7058;BME280;3570;43.080;25.628;2023-07-20T03:34:18;-20103.53;;;22.40;100.00
7058;BME280;3570;43.080;25.628;2023-07-20T03:37:02;-20110.31;;;22.64;100.00
7058;BME280;3570;43.080;25.628;2023-07-20T03:39:48;-20118.84;;;22.93;100.00
7058;BME280;3570;43.080;25.628;2023-07-20T03:42:32;-20120.00;;;22.97;100.00
7058;BME280;3570;43.080;25.628;2023-07-20T03:45:16;-20125.38;;;23.16;100.00
7058;BME280;3570;43.080;25.628;2023-07-20T03:48:00;-20131.56;;;23.38;100.00
7058;BME280;3570;43.080;25.628;2023-07-20T03:50:45;-20125.78;;;23.17;100.00
7058;BME280;3570;43.080;25.628;2023-07-20T03:53:29;-20136.63;;;23.55;100.00
7058;BME280;3570;43.080;25.628;2023-07-20T03:56:14;-20113.06;;;22.73;100.00
7058;BME280;3570;43.080;25.628;2023-07-20T03:58:58;-20112.94;;;22.73;100.00
7058;BME280;3570;43.080;25.628;2023-07-20T04:01:42;-20092.53;;;22.02;100.00
7058;BME280;3570;43.080;25.628;2023-07-20T04:04:25;-20085.44;;;21.77;100.00
7058;BME280;3570;43.080;25.628;2023-07-20T04:07:09;-20081.53;;;21.64;100.00
7058;BME280;3570;43.080;25.628;2023-07-20T04:09:53;-20085.72;;;21.78;100.00
7058;BME280;3570;43.080;25.628;2023-07-20T04:12:37;-20088.19;;;21.87;100.00
7058;BME280;3570;43.080;25.628;2023-07-20T04:15:21;-20091.09;;;21.97;100.00
7058;BME280;3570;43.080;25.628;2023-07-20T04:18:05;-20094.41;;;22.08;100.00
7058;BME280;3570;43.080;25.628;2023-07-20T04:20:49;-20102.38;;;22.36;100.00
7058;BME280;3570;43.080;25.628;2023-07-20T04:23:33;-20112.94;;;22.73;100.00
7058;BME280;3570;43.080;25.628;2023-07-20T04:26:17;-20114.81;;;22.79;100.00
7058;BME280;3570;43.080;25.628;2023-07-20T04:29:01;-20115.53;;;22.82;100.00
7058;BME280;3570;43.080;25.628;2023-07-20T04:31:45;-20105.84;;;22.48;100.00
7058;BME280;3570;43.080;25.628;2023-07-20T04:34:29;-20099.63;;;22.26;100.00
7058;BME280;3570;43.080;25.628;2023-07-20T04:37:13;-20091.94;;;22.00;100.00
7058;BME280;3570;43.080;25.628;2023-07-20T04:39:57;-20086.16;;;21.80;100.00
7058;BME280;3570;43.080;25.628;2023-07-20T04:42:41;-20079.22;;;21.56;100.00
7058;BME280;3570;43.080;25.628;2023-07-20T04:45:25;-20090.78;;;21.96;100.00
7058;BME280;3570;43.080;25.628;2023-07-20T04:48:14;-20098.31;;;22.22;100.00
7058;BME280;3570;43.080;25.628;2023-07-20T04:50:59;-20100.91;;;22.31;100.00
7058;BME280;3570;43.080;25.628;2023-07-20T04:53:43;-20092.25;;;22.01;100.00
7058;BME280;3570;43.080;25.628;2023-07-20T04:56:26;-20092.97;;;22.03;100.00
7058;BME280;3570;43.080;25.628;2023-07-20T04:59:10;-20097.31;;;22.18;100.00
7058;BME280;3570;43.080;25.628;2023-07-20T05:01:54;-20093.53;;;22.05;100.00
7058;BME280;3570;43.080;25.628;2023-07-20T05:04:38;-20101.78;;;22.34;100.00
7058;BME280;3570;43.080;25.628;2023-07-20T05:07:22;-20107.72;;;22.55;100.00
7058;BME280;3570;43.080;25.628;2023-07-20T05:10:06;-20118.13;;;22.91;100.00
7058;BME280;3570;43.080;25.628;2023-07-20T05:12:51;-20113.66;;;22.75;100.00
7058;BME280;3570;43.080;25.628;2023-07-20T05:15:35;-20125.94;;;23.18;100.00
7058;BME280;3570;43.080;25.628;2023-07-20T05:18:20;-20124.94;;;23.14;100.00
7058;BME280;3570;43.080;25.628;2023-07-20T05:21:05;-20119.16;;;22.94;100.00
7058;BME280;3570;43.080;25.628;2023-07-20T05:23:50;-20121.75;;;23.03;100.00
7058;BME280;3570;43.080;25.628;2023-07-20T05:26:34;-20116.97;;;22.87;100.00
7058;BME280;3570;43.080;25.628;2023-07-20T05:29:18;-20148.63;;;23.97;100.00
7058;BME280;3570;43.080;25.628;2023-07-20T05:32:02;-20156.44;;;24.24;100.00
7058;BME280;3570;43.080;25.628;2023-07-20T05:34:47;-20149.34;;;23.99;100.00
7058;BME280;3570;43.080;25.628;2023-07-20T05:37:31;-20162.50;;;24.45;100.00
7058;BME280;3570;43.080;25.628;2023-07-20T05:40:15;-20165.81;;;24.57;100.00
7058;BME280;3570;43.080;25.628;2023-07-20T05:43:02;-20174.91;;;24.88;100.00
7058;BME280;3570;43.080;25.628;2023-07-20T05:45:47;-20188.47;;;25.36;100.00
7058;BME280;3570;43.080;25.628;2023-07-20T05:48:31;-20199.16;;;25.73;100.00
7058;BME280;3570;43.080;25.628;2023-07-20T05:51:15;-20199.16;;;25.73;100.00
7058;BME280;3570;43.080;25.628;2023-07-20T05:53:59;-20198.00;;;25.69;100.00
7058;BME280;3570;43.080;25.628;2023-07-20T05:56:43;-20204.91;;;25.93;100.00
7058;BME280;3570;43.080;25.628;2023-07-20T05:59:28;-20210.84;;;26.14;100.00
7058;BME280;3570;43.080;25.628;2023-07-20T06:02:15;-20209.97;;;26.11;100.00
7058;BME280;3570;43.080;25.628;2023-07-20T06:04:59;-20208.38;;;26.05;100.00
7058;BME280;3570;43.080;25.628;2023-07-20T06:07:43;-20203.75;;;25.89;100.00
7058;BME280;3570;43.080;25.628;2023-07-20T06:10:27;-20202.03;;;25.83;100.00
7058;BME280;3570;43.080;25.628;2023-07-20T06:13:11;-20201.88;;;25.82;100.00
7058;BME280;3570;43.080;25.628;2023-07-20T06:15:55;-20196.25;;;25.63;100.00
7058;BME280;3570;43.080;25.628;2023-07-20T06:18:39;-20201.03;;;25.79;100.00
7058;BME280;3570;43.080;25.628;2023-07-20T06:21:22;-20198.28;;;25.70;100.00
7058;BME280;3570;43.080;25.628;2023-07-20T06:24:06;-20202.91;;;25.86;100.00
7058;BME280;3570;43.080;25.628;2023-07-20T06:26:50;-20211.97;;;26.18;100.00
7058;BME280;3570;43.080;25.628;2023-07-20T06:29:34;-20210.13;;;26.11;100.00
7058;BME280;3570;43.080;25.628;2023-07-20T06:32:18;-20208.53;;;26.05;100.00
7058;BME280;3570;43.080;25.628;2023-07-20T06:35:02;-20219.03;;;26.42;100.00
7058;BME280;3570;43.080;25.628;2023-07-20T06:37:46;-20227.41;;;26.71;100.00
7058;BME280;3570;43.080;25.628;2023-07-20T06:40:30;-20231.59;;;26.86;100.00
7058;BME280;3570;43.080;25.628;2023-07-20T06:43:15;-20244.69;;;27.32;100.00
7058;BME280;3570;43.080;25.628;2023-07-20T06:45:59;-20236.47;;;27.03;100.00
7058;BME280;3570;43.080;25.628;2023-07-20T06:48:43;-20228.56;;;26.75;100.00
7058;BME280;3570;43.080;25.628;2023-07-20T06:51:27;-20230.00;;;26.80;100.00
7058;BME280;3570;43.080;25.628;2023-07-20T06:54:11;-20231.16;;;26.84;100.00
7058;BME280;3570;43.080;25.628;2023-07-20T06:56:55;-20249.16;;;27.47;100.00
7058;BME280;3570;43.080;25.628;2023-07-20T06:59:40;-20257.78;;;27.77;100.00
7058;BME280;3570;43.080;25.628;2023-07-20T07:02:24;-20252.16;;;27.58;100.00
7058;BME280;3570;43.080;25.628;2023-07-20T07:05:08;-20246.41;;;27.38;95.93
7058;BME280;3570;43.080;25.628;2023-07-20T07:07:52;-20251.47;;;27.55;88.55
7058;BME280;3570;43.080;25.628;2023-07-20T07:10:36;-20235.63;;;27.00;90.00
7058;BME280;3570;43.080;25.628;2023-07-20T07:13:21;-20241.94;;;27.22;90.18
7058;BME280;3570;43.080;25.628;2023-07-20T07:16:04;-20242.97;;;27.26;88.25
7058;BME280;3570;43.080;25.628;2023-07-20T07:18:50;-20237.47;;;27.07;86.49
7058;BME280;3570;43.080;25.628;2023-07-20T07:21:34;-20232.59;;;26.89;87.60
7058;BME280;3570;43.080;25.628;2023-07-20T07:24:18;-20246.13;;;27.37;88.85
7058;BME280;3570;43.080;25.628;2023-07-20T07:27:03;-20253.47;;;27.62;86.96
7058;BME280;3570;43.080;25.628;2023-07-20T07:29:47;-20252.59;;;27.59;83.07
7058;BME280;3570;43.080;25.628;2023-07-20T07:32:33;-20237.78;;;27.08;87.07
7058;BME280;3570;43.080;25.628;2023-07-20T07:35:17;-20252.16;;;27.58;86.38
7058;BME280;3570;43.080;25.628;2023-07-20T07:38:01;-20256.22;;;27.72;84.58
7058;BME280;3570;43.080;25.628;2023-07-20T07:40:45;-20261.09;;;27.89;82.10
7058;BME280;3570;43.080;25.628;2023-07-20T07:43:30;-20259.94;;;27.85;82.45
7058;BME280;3570;43.080;25.628;2023-07-20T07:46:14;-20263.53;;;27.98;83.53
7058;BME280;3570;43.080;25.628;2023-07-20T07:48:58;-20279.66;;;28.54;80.78
7058;BME280;3570;43.080;25.628;2023-07-20T07:51:41;-20286.72;;;28.78;77.09
7058;BME280;3570;43.080;25.628;2023-07-20T07:54:26;-20280.94;;;28.58;77.30
7058;BME280;3570;43.080;25.628;2023-07-20T07:57:10;-20298.91;;;29.21;76.73
7058;BME280;3570;43.080;25.628;2023-07-20T07:59:54;-20298.50;;;29.20;75.13
7058;BME280;3570;43.080;25.628;2023-07-20T08:02:38;-20303.53;;;29.37;74.63
7058;BME280;3570;43.080;25.628;2023-07-20T08:05:22;-20308.84;;;29.56;73.56
7058;BME280;3570;43.080;25.628;2023-07-20T08:08:05;-20316.16;;;29.82;73.59
7058;BME280;3570;43.080;25.628;2023-07-20T08:10:53;-20312.56;;;29.69;71.99
7058;BME280;3570;43.080;25.628;2023-07-20T08:13:37;-20324.19;;;30.10;73.87
7058;BME280;3570;43.080;25.628;2023-07-20T08:16:21;-20335.53;;;30.49;70.16
7058;BME280;3570;43.080;25.628;2023-07-20T08:19:05;-20313.72;;;29.73;70.06
7058;BME280;3570;43.080;25.628;2023-07-20T08:21:49;-20323.34;;;30.07;70.15
7058;BME280;3570;43.080;25.628;2023-07-20T08:24:33;-20330.66;;;30.32;72.24
7058;BME280;3570;43.080;25.628;2023-07-20T08:27:17;-20331.38;;;30.35;67.38
7058;BME280;3570;43.080;25.628;2023-07-20T08:30:02;-20333.81;;;30.43;65.53
7058;BME280;3570;43.080;25.628;2023-07-20T08:32:46;-20347.75;;;30.92;65.22
7058;BME280;3570;43.080;25.628;2023-07-20T08:35:31;-20347.16;;;30.90;63.80
7058;BME280;3570;43.080;25.628;2023-07-20T08:38:15;-20355.78;;;31.20;62.39
7058;BME280;3570;43.080;25.628;2023-07-20T08:40:59;-20342.72;;;30.75;64.12
7058;BME280;3570;43.080;25.628;2023-07-20T08:43:46;-20323.78;;;30.08;65.92
7058;BME280;3570;43.080;25.628;2023-07-20T08:46:31;-20346.59;;;30.88;65.19
7058;BME280;3570;43.080;25.628;2023-07-20T08:49:16;-20333.81;;;30.43;67.29
7058;BME280;3570;43.080;25.628;2023-07-20T08:52:04;-20340.28;;;30.66;67.10
7058;BME280;3570;43.080;25.628;2023-07-20T08:54:49;-20353.34;;;31.12;65.83
7058;BME280;3570;43.080;25.628;2023-07-20T08:57:33;-20357.34;;;31.26;65.79
7058;BME280;3570;43.080;25.628;2023-07-20T09:00:19;-20369.81;;;31.70;65.87
7058;BME280;3570;43.080;25.628;2023-07-20T09:03:04;-20358.78;;;31.31;63.96
7058;BME280;3570;43.080;25.628;2023-07-20T09:05:48;-20352.03;;;31.07;64.68
7058;BME280;3570;43.080;25.628;2023-07-20T09:08:33;-20355.19;;;31.18;66.97
7058;BME280;3570;43.080;25.628;2023-07-20T09:11:17;-20375.84;;;31.91;62.06
7058;BME280;3570;43.080;25.628;2023-07-20T09:14:06;-20380.16;;;32.06;60.44
7058;BME280;3570;43.080;25.628;2023-07-20T09:16:53;-20348.47;;;30.95;62.75
7058;BME280;3570;43.080;25.628;2023-07-20T09:19:38;-20339.28;;;30.63;64.05
7058;BME280;3570;43.080;25.628;2023-07-20T09:22:22;-20330.22;;;30.31;65.74
7058;BME280;3570;43.080;25.628;2023-07-20T09:25:07;-20351.91;;;31.07;63.84
7058;BME280;3570;43.080;25.628;2023-07-20T09:27:51;-20344.16;;;30.80;65.72
7058;BME280;3570;43.080;25.628;2023-07-20T09:30:35;-20367.53;;;31.62;63.77
7058;BME280;3570;43.080;25.628;2023-07-20T09:33:22;-20374.13;;;31.85;62.10
7058;BME280;3570;43.080;25.628;2023-07-20T09:36:09;-20375.41;;;31.89;63.84
7058;BME280;3570;43.080;25.628;2023-07-20T09:38:55;-20366.81;;;31.59;61.93
7058;BME280;3570;43.080;25.628;2023-07-20T09:41:40;-20356.06;;;31.21;64.42
7058;BME280;3570;43.080;25.628;2023-07-20T09:44:27;-20396.19;;;32.62;57.01
7058;BME280;3570;43.080;25.628;2023-07-20T09:47:12;-20380.56;;;32.07;62.36
7058;BME280;3570;43.080;25.628;2023-07-20T09:49:59;-20429.53;;;33.79;56.14
7058;BME280;3570;43.080;25.628;2023-07-20T09:52:45;-20442.81;;;34.26;54.92
7058;BME280;3570;43.080;25.628;2023-07-20T09:55:31;-20488.66;;;35.87;49.34
7058;BME280;3570;43.080;25.628;2023-07-20T09:58:17;-20502.63;;;36.37;45.21
7058;BME280;3570;43.080;25.628;2023-07-20T10:01:03;-20509.63;;;36.61;44.45
7058;BME280;3570;43.080;25.628;2023-07-20T10:03:53;-20532.97;;;37.44;41.13
7058;BME280;3570;43.080;25.628;2023-07-20T10:06:42;-20434.66;;;33.97;47.79
7058;BME280;3570;43.080;25.628;2023-07-20T10:09:27;-20439.53;;;34.14;49.49
7058;BME280;3570;43.080;25.628;2023-07-20T10:12:13;-20460.25;;;34.87;47.15
7058;BME280;3570;43.080;25.628;2023-07-20T10:15:29;-20474.97;;;35.39;44.81
7058;BME280;3570;43.080;25.628;2023-07-20T10:18:23;-20485.78;;;35.77;44.32
7058;BME280;3570;43.080;25.628;2023-07-20T10:21:12;-20472.53;;;35.31;45.12
7058;BME280;3570;43.080;25.628;2023-07-20T10:23:57;-20440.38;;;34.17;48.51
7058;BME280;3570;43.080;25.628;2023-07-20T10:26:41;-20468.09;;;35.15;46.07
7058;BME280;3570;43.080;25.628;2023-07-20T10:29:26;-20500.63;;;36.30;44.50
7058;BME280;3570;43.080;25.628;2023-07-20T10:32:11;-20476.53;;;35.45;43.46
7058;BME280;3570;43.080;25.628;2023-07-20T10:34:56;-20457.09;;;34.76;44.53
7058;BME280;3570;43.080;25.628;2023-07-20T10:37:55;-20437.81;;;34.08;46.90
7058;BME280;3570;43.080;25.628;2023-07-20T10:40:54;-20510.31;;;36.64;43.90
7058;BME280;3570;43.080;25.628;2023-07-20T10:43:42;-20547.78;;;37.96;38.87
7058;BME280;3570;43.080;25.628;2023-07-20T10:49:24;-20544.94;;;37.86;38.53
7058;BME280;3570;43.080;25.628;2023-07-20T10:52:10;-20531.13;;;37.37;40.12
7058;BME280;3570;43.080;25.628;2023-07-20T10:54:54;-20555.91;;;38.25;39.49
7058;BME280;3570;43.080;25.628;2023-07-20T10:57:39;-20559.03;;;38.36;38.02
7058;BME280;3570;43.080;25.628;2023-07-20T11:00:24;-20511.75;;;36.69;40.37
7058;BME280;3570;43.080;25.628;2023-07-20T11:03:08;-20494.34;;;36.08;42.39
7058;BME280;3570;43.080;25.628;2023-07-20T11:05:52;-20479.66;;;35.56;42.71
7058;BME280;3570;43.080;25.628;2023-07-20T11:08:40;-20522.16;;;37.06;41.48
7058;BME280;3570;43.080;25.628;2023-07-20T11:11:32;-20572.25;;;38.83;38.10
7058;BME280;3570;43.080;25.628;2023-07-20T11:14:22;-20572.38;;;38.83;37.14
7058;BME280;3570;43.080;25.628;2023-07-20T11:17:15;-20584.88;;;39.27;36.15
7058;BME280;3570;43.080;25.628;2023-07-20T11:20:04;-20526.00;;;37.19;39.45
7058;BME280;3570;43.080;25.628;2023-07-20T11:22:49;-20502.91;;;36.38;42.28
7058;BME280;3570;43.080;25.628;2023-07-20T11:25:39;-20546.78;;;37.93;40.28
7058;BME280;3570;43.080;25.628;2023-07-20T11:28:24;-20605.34;;;40.00;36.94
7058;BME280;3570;43.080;25.628;2023-07-20T11:31:08;-20612.28;;;40.24;35.15
7058;BME280;3570;43.080;25.628;2023-07-20T11:33:52;-20601.06;;;39.85;34.89
7058;BME280;3570;43.080;25.628;2023-07-20T11:36:36;-20585.75;;;39.30;36.25
7058;BME280;3570;43.080;25.628;2023-07-20T11:39:22;-20588.88;;;39.41;35.37
7058;BME280;3570;43.080;25.628;2023-07-20T11:42:06;-20626.91;;;40.76;33.55
7058;BME280;3570;43.080;25.628;2023-07-20T11:44:53;-20656.38;;;41.81;31.91
7058;BME280;3570;43.080;25.628;2023-07-20T11:47:41;-20615.56;;;40.36;33.43
7058;BME280;3570;43.080;25.628;2023-07-20T11:50:28;-20543.50;;;37.81;37.91
7058;BME280;3570;43.080;25.628;2023-07-20T11:53:13;-20536.13;;;37.55;38.54
7058;BME280;3570;43.080;25.628;2023-07-20T11:55:57;-20565.13;;;38.57;36.89
7058;BME280;3570;43.080;25.628;2023-07-20T11:58:44;-20584.03;;;39.24;35.23
7058;BME280;3570;43.080;25.628;2023-07-20T12:01:29;-20604.22;;;39.96;34.78
7058;BME280;3570;43.080;25.628;2023-07-20T12:04:15;-20601.78;;;39.87;33.97
7058;BME280;3570;43.080;25.628;2023-07-20T12:07:00;-20648.16;;;41.52;32.64
7058;BME280;3570;43.080;25.628;2023-07-20T12:09:44;-20629.75;;;40.86;32.57
7058;BME280;3570;43.080;25.628;2023-07-20T12:12:32;-20640.22;;;41.23;32.43
7058;BME280;3570;43.080;25.628;2023-07-20T12:15:26;-20648.31;;;41.52;31.46
7058;BME280;3570;43.080;25.628;2023-07-20T12:18:10;-20635.13;;;41.05;31.88
7058;BME280;3570;43.080;25.628;2023-07-20T12:20:58;-20619.09;;;40.49;32.16
7058;BME280;3570;43.080;25.628;2023-07-20T12:23:43;-20620.09;;;40.52;31.88
7058;BME280;3570;43.080;25.628;2023-07-20T12:26:29;-20598.38;;;39.75;33.28
7058;BME280;3570;43.080;25.628;2023-07-20T12:29:13;-20536.53;;;37.56;35.79
7058;BME280;3570;43.080;25.628;2023-07-20T12:31:57;-20509.19;;;36.60;37.27
7058;BME280;3570;43.080;25.628;2023-07-20T12:34:42;-20464.81;;;35.03;39.87
7058;BME280;3570;43.080;25.628;2023-07-20T12:37:26;-20459.97;;;34.86;41.27
7058;BME280;3570;43.080;25.628;2023-07-20T12:40:11;-20499.50;;;36.26;38.53
7058;BME280;3570;43.080;25.628;2023-07-20T12:42:55;-20532.13;;;37.41;37.31
7058;BME280;3570;43.080;25.628;2023-07-20T12:45:39;-20557.88;;;38.32;34.02
7058;BME280;3570;43.080;25.628;2023-07-20T12:48:24;-20528.84;;;37.29;35.70
7058;BME280;3570;43.080;25.628;2023-07-20T12:51:09;-20500.91;;;36.31;38.24
7058;BME280;3570;43.080;25.628;2023-07-20T12:53:54;-20491.38;;;35.97;37.78
7058;BME280;3570;43.080;25.628;2023-07-20T12:56:38;-20472.38;;;35.30;40.29
7058;BME280;3570;43.080;25.628;2023-07-20T12:59:22;-20449.25;;;34.49;41.57
7058;BME280;3570;43.080;25.628;2023-07-20T13:02:06;-20442.09;;;34.24;42.26
7058;BME280;3570;43.080;25.628;2023-07-20T13:04:54;-20458.69;;;34.82;41.75
7058;BME280;3570;43.080;25.628;2023-07-20T13:07:39;-20460.81;;;34.89;40.38
7058;BME280;3570;43.080;25.628;2023-07-20T13:10:27;-20470.09;;;35.22;39.41
7058;BME280;3570;43.080;25.628;2023-07-20T13:13:12;-20471.25;;;35.26;38.67
7058;BME280;3570;43.080;25.628;2023-07-20T13:15:56;-20529.72;;;37.32;36.04
7058;BME280;3570;43.080;25.628;2023-07-20T13:18:40;-20593.56;;;39.58;31.58
7058;BME280;3570;43.080;25.628;2023-07-20T13:21:24;-20621.50;;;40.57;30.32
7058;BME280;3570;43.080;25.628;2023-07-20T13:24:08;-20622.78;;;40.62;30.00
7058;BME280;3570;43.080;25.628;2023-07-20T13:26:52;-20585.47;;;39.29;30.73
7058;BME280;3570;43.080;25.628;2023-07-20T13:29:36;-20597.53;;;39.72;30.68
7058;BME280;3570;43.080;25.628;2023-07-20T13:32:20;-20633.28;;;40.99;29.75
7058;BME280;3570;43.080;25.628;2023-07-20T13:35:04;-20630.31;;;40.88;29.83
7058;BME280;3570;43.080;25.628;2023-07-20T13:37:48;-20588.44;;;39.40;30.36
7058;BME280;3570;43.080;25.628;2023-07-20T13:40:33;-20523.84;;;37.12;33.37
7058;BME280;3570;43.080;25.628;2023-07-20T13:43:17;-20508.34;;;36.57;35.29
7058;BME280;3570;43.080;25.628;2023-07-20T13:46:01;-20539.81;;;37.68;32.70
7058;BME280;3570;43.080;25.628;2023-07-20T13:48:45;-20524.16;;;37.13;33.44
7058;BME280;3570;43.080;25.628;2023-07-20T13:51:29;-20513.19;;;36.74;33.43
7058;BME280;3570;43.080;25.628;2023-07-20T13:54:13;-20490.09;;;35.92;34.93
7058;BME280;3570;43.080;25.628;2023-07-20T13:56:57;-20508.34;;;36.57;34.06
7058;BME280;3570;43.080;25.628;2023-07-20T13:59:41;-20504.50;;;36.43;35.16
7058;BME280;3570;43.080;25.628;2023-07-20T14:02:25;-20563.16;;;38.50;32.39
7058;BME280;3570;43.080;25.628;2023-07-20T14:05:09;-20632.28;;;40.95;28.66
7058;BME280;3570;43.080;25.628;2023-07-20T14:07:54;-20653.56;;;41.71;27.91
7058;BME280;3570;43.080;25.628;2023-07-20T14:10:38;-20637.97;;;41.15;28.25
7058;BME280;3570;43.080;25.628;2023-07-20T14:13:22;-20647.44;;;41.49;27.70
7058;BME280;3570;43.080;25.628;2023-07-20T14:16:06;-20661.91;;;42.00;27.51
7058;BME280;3570;43.080;25.628;2023-07-20T14:18:50;-20643.91;;;41.37;28.12
7058;BME280;3570;43.080;25.628;2023-07-20T14:21:33;-20645.31;;;41.42;27.42
7058;BME280;3570;43.080;25.628;2023-07-20T14:24:17;-20632.72;;;40.97;28.06
7058;BME280;3570;43.080;25.628;2023-07-20T14:27:01;-20614.84;;;40.33;29.08
7058;BME280;3570;43.080;25.628;2023-07-20T14:29:45;-20641.94;;;41.30;27.91
7058;BME280;3570;43.080;25.628;2023-07-20T14:32:29;-20625.06;;;40.70;28.79
7058;BME280;3570;43.080;25.628;2023-07-20T14:35:13;-20620.38;;;40.53;29.43
7058;BME280;3570;43.080;25.628;2023-07-20T14:37:57;-20610.59;;;40.18;29.36
7058;BME280;3570;43.080;25.628;2023-07-20T14:40:42;-20611.31;;;40.21;29.41
7058;BME280;3570;43.080;25.628;2023-07-20T14:43:26;-20641.50;;;41.28;28.96